sensor_id;sensor_type;location;lat;lon;timestamp;temperature;humidity
25640;DHT22;13497;48.322;16.204;2024-03-02T00:00:13;8.30;99.90
25640;DHT22;13497;48.322;16.204;2024-03-02T00:02:47;8.30;99.90
25640;DHT22;13497;48.322;16.204;2024-03-02T00:05:21;8.30;99.90
25640;DHT22;13497;48.322;16.204;2024-03-02T00:07:57;8.40;99.90
25640;DHT22;13497;48.322;16.204;2024-03-02T00:10:25;8.40;99.90
25640;DHT22;13497;48.322;16.204;2024-03-02T00:12:55;8.40;99.90
25640;DHT22;13497;48.322;16.204;2024-03-02T00:15:54;8.50;99.90
25640;DHT22;13497;48.322;16.204;2024-03-02T00:18:31;8.50;99.90
25640;DHT22;13497;48.322;16.204;2024-03-02T00:20:58;8.60;99.90
25640;DHT22;13497;48.322;16.204;2024-03-02T00:23:26;8.60;99.90
25640;DHT22;13497;48.322;16.204;2024-03-02T00:25:56;8.60;99.90
25640;DHT22;13497;48.322;16.204;2024-03-02T00:28:24;8.60;99.90
25640;DHT22;13497;48.322;16.204;2024-03-02T00:33:27;8.60;99.90
25640;DHT22;13497;48.322;16.204;2024-03-02T00:35:54;8.60;99.90
25640;DHT22;13497;48.322;16.204;2024-03-02T00:38:19;8.60;99.90
25640;DHT22;13497;48.322;16.204;2024-03-02T00:40:46;8.60;99.90
25640;DHT22;13497;48.322;16.204;2024-03-02T00:46:07;8.70;99.90
25640;DHT22;13497;48.322;16.204;2024-03-02T00:48:33;8.70;99.90
25640;DHT22;13497;48.322;16.204;2024-03-02T00:51:02;8.70;99.90
25640;DHT22;13497;48.322;16.204;2024-03-02T00:53:31;8.70;99.90
25640;DHT22;13497;48.322;16.204;2024-03-02T00:55:59;8.80;99.90
25640;DHT22;13497;48.322;16.204;2024-03-02T00:58:25;8.80;99.90
25640;DHT22;13497;48.322;16.204;2024-03-02T01:00:50;8.70;99.90
25640;DHT22;13497;48.322;16.204;2024-03-02T01:03:16;8.70;99.90
25640;DHT22;13497;48.322;16.204;2024-03-02T01:05:42;8.70;99.90
25640;DHT22;13497;48.322;16.204;2024-03-02T01:08:09;8.60;99.90
25640;DHT22;13497;48.322;16.204;2024-03-02T01:10:35;8.50;99.90
25640;DHT22;13497;48.322;16.204;2024-03-02T01:13:01;8.40;99.90
25640;DHT22;13497;48.322;16.204;2024-03-02T01:15:26;8.50;99.90
25640;DHT22;13497;48.322;16.204;2024-03-02T01:17:52;8.40;99.90
25640;DHT22;13497;48.322;16.204;2024-03-02T01:20:18;8.30;99.90
25640;DHT22;13497;48.322;16.204;2024-03-02T01:22:43;8.30;99.90
25640;DHT22;13497;48.322;16.204;2024-03-02T01:25:09;8.30;99.90
25640;DHT22;13497;48.322;16.204;2024-03-02T01:27:35;8.20;99.90
25640;DHT22;13497;48.322;16.204;2024-03-02T01:30:01;8.30;99.90
25640;DHT22;13497;48.322;16.204;2024-03-02T01:32:27;8.20;99.90
25640;DHT22;13497;48.322;16.204;2024-03-02T01:34:52;8.30;99.90
25640;DHT22;13497;48.322;16.204;2024-03-02T01:37:18;8.20;99.90
25640;DHT22;13497;48.322;16.204;2024-03-02T01:39:44;8.10;99.90
25640;DHT22;13497;48.322;16.204;2024-03-02T01:42:09;8.00;99.90
25640;DHT22;13497;48.322;16.204;2024-03-02T01:44:36;7.90;99.90
25640;DHT22;13497;48.322;16.204;2024-03-02T01:47:02;7.90;99.90
25640;DHT22;13497;48.322;16.204;2024-03-02T01:49:28;7.70;99.90
25640;DHT22;13497;48.322;16.204;2024-03-02T01:51:54;7.80;99.90
25640;DHT22;13497;48.322;16.204;2024-03-02T01:54:19;7.70;99.90
25640;DHT22;13497;48.322;16.204;2024-03-02T01:56:45;7.70;99.90
25640;DHT22;13497;48.322;16.204;2024-03-02T01:59:11;7.80;99.90
25640;DHT22;13497;48.322;16.204;2024-03-02T02:01:38;7.80;99.90
25640;DHT22;13497;48.322;16.204;2024-03-02T02:04:04;7.80;99.90
25640;DHT22;13497;48.322;16.204;2024-03-02T02:06:32;7.90;99.90
25640;DHT22;13497;48.322;16.204;2024-03-02T02:08:57;8.00;99.90
25640;DHT22;13497;48.322;16.204;2024-03-02T02:11:24;7.90;99.90
25640;DHT22;13497;48.322;16.204;2024-03-02T02:13:49;7.90;99.90
25640;DHT22;13497;48.322;16.204;2024-03-02T02:16:15;7.90;99.90
25640;DHT22;13497;48.322;16.204;2024-03-02T02:18:41;7.90;99.90
25640;DHT22;13497;48.322;16.204;2024-03-02T02:21:06;7.90;99.90
25640;DHT22;13497;48.322;16.204;2024-03-02T02:23:32;7.90;99.90
25640;DHT22;13497;48.322;16.204;2024-03-02T02:25:58;7.90;99.90
25640;DHT22;13497;48.322;16.204;2024-03-02T02:28:23;7.80;99.90
25640;DHT22;13497;48.322;16.204;2024-03-02T02:30:49;7.60;99.90
25640;DHT22;13497;48.322;16.204;2024-03-02T02:33:15;7.60;99.90
25640;DHT22;13497;48.322;16.204;2024-03-02T02:35:40;7.60;99.90
25640;DHT22;13497;48.322;16.204;2024-03-02T02:38:06;7.50;99.90
25640;DHT22;13497;48.322;16.204;2024-03-02T02:40:32;7.50;99.90
25640;DHT22;13497;48.322;16.204;2024-03-02T02:42:58;7.40;99.90
25640;DHT22;13497;48.322;16.204;2024-03-02T02:45:24;7.50;99.90
25640;DHT22;13497;48.322;16.204;2024-03-02T02:47:50;7.60;99.90
25640;DHT22;13497;48.322;16.204;2024-03-02T02:50:16;7.50;99.90
25640;DHT22;13497;48.322;16.204;2024-03-02T02:52:42;7.50;99.90
25640;DHT22;13497;48.322;16.204;2024-03-02T02:55:13;7.50;99.90
25640;DHT22;13497;48.322;16.204;2024-03-02T02:57:40;7.50;99.90
25640;DHT22;13497;48.322;16.204;2024-03-02T03:00:12;7.40;99.90
25640;DHT22;13497;48.322;16.204;2024-03-02T03:02:49;7.50;99.90
25640;DHT22;13497;48.322;16.204;2024-03-02T03:05:15;7.50;99.90
25640;DHT22;13497;48.322;16.204;2024-03-02T03:07:41;7.50;99.90
25640;DHT22;13497;48.322;16.204;2024-03-02T03:10:08;7.60;99.90
25640;DHT22;13497;48.322;16.204;2024-03-02T03:12:34;7.50;99.90
25640;DHT22;13497;48.322;16.204;2024-03-02T03:15:01;7.60;99.90
25640;DHT22;13497;48.322;16.204;2024-03-02T03:17:27;7.50;99.90
25640;DHT22;13497;48.322;16.204;2024-03-02T03:19:53;7.50;99.90
25640;DHT22;13497;48.322;16.204;2024-03-02T03:22:18;7.50;99.90
25640;DHT22;13497;48.322;16.204;2024-03-02T03:24:44;7.50;99.90
25640;DHT22;13497;48.322;16.204;2024-03-02T03:27:10;7.40;99.90
25640;DHT22;13497;48.322;16.204;2024-03-02T03:29:37;7.40;99.90
25640;DHT22;13497;48.322;16.204;2024-03-02T03:32:03;7.40;99.90
25640;DHT22;13497;48.322;16.204;2024-03-02T03:34:32;7.40;99.90
25640;DHT22;13497;48.322;16.204;2024-03-02T03:36:58;7.40;99.90
25640;DHT22;13497;48.322;16.204;2024-03-02T03:39:24;7.40;99.90
25640;DHT22;13497;48.322;16.204;2024-03-02T03:41:49;7.40;99.90
25640;DHT22;13497;48.322;16.204;2024-03-02T03:44:15;7.30;99.90
25640;DHT22;13497;48.322;16.204;2024-03-02T03:46:41;7.30;99.90
25640;DHT22;13497;48.322;16.204;2024-03-02T03:49:07;7.30;99.90
25640;DHT22;13497;48.322;16.204;2024-03-02T03:51:33;7.20;99.90
25640;DHT22;13497;48.322;16.204;2024-03-02T03:53:59;7.20;99.90
25640;DHT22;13497;48.322;16.204;2024-03-02T03:56:25;7.20;99.90
25640;DHT22;13497;48.322;16.204;2024-03-02T03:58:50;7.20;99.90
25640;DHT22;13497;48.322;16.204;2024-03-02T04:01:16;7.20;99.90
25640;DHT22;13497;48.322;16.204;2024-03-02T04:03:42;7.10;99.90
25640;DHT22;13497;48.322;16.204;2024-03-02T04:06:07;7.10;99.90
25640;DHT22;13497;48.322;16.204;2024-03-02T04:08:33;7.00;99.90
25640;DHT22;13497;48.322;16.204;2024-03-02T04:10:58;7.00;99.90
25640;DHT22;13497;48.322;16.204;2024-03-02T04:13:24;7.00;99.90
25640;DHT22;13497;48.322;16.204;2024-03-02T04:15:50;6.90;99.90
25640;DHT22;13497;48.322;16.204;2024-03-02T04:18:15;6.90;99.90
25640;DHT22;13497;48.322;16.204;2024-03-02T04:20:42;7.00;99.90
25640;DHT22;13497;48.322;16.204;2024-03-02T04:23:07;7.00;99.90
25640;DHT22;13497;48.322;16.204;2024-03-02T04:25:33;6.90;99.90
25640;DHT22;13497;48.322;16.204;2024-03-02T04:27:59;6.80;99.90
25640;DHT22;13497;48.322;16.204;2024-03-02T04:30:25;6.90;99.90
25640;DHT22;13497;48.322;16.204;2024-03-02T04:32:50;6.80;99.90
25640;DHT22;13497;48.322;16.204;2024-03-02T04:35:16;6.80;99.90
25640;DHT22;13497;48.322;16.204;2024-03-02T04:37:42;6.80;99.90
25640;DHT22;13497;48.322;16.204;2024-03-02T04:40:08;6.80;99.90
25640;DHT22;13497;48.322;16.204;2024-03-02T04:42:34;6.80;99.90
25640;DHT22;13497;48.322;16.204;2024-03-02T04:45:00;6.90;99.90
25640;DHT22;13497;48.322;16.204;2024-03-02T04:47:26;6.90;99.90
25640;DHT22;13497;48.322;16.204;2024-03-02T04:49:52;6.80;99.90
25640;DHT22;13497;48.322;16.204;2024-03-02T04:52:18;6.80;99.90
25640;DHT22;13497;48.322;16.204;2024-03-02T04:54:44;6.80;99.90
25640;DHT22;13497;48.322;16.204;2024-03-02T04:57:28;6.80;99.90
25640;DHT22;13497;48.322;16.204;2024-03-02T04:59:54;6.70;99.90
25640;DHT22;13497;48.322;16.204;2024-03-02T05:02:19;6.70;99.90
25640;DHT22;13497;48.322;16.204;2024-03-02T05:04:45;6.60;99.90
25640;DHT22;13497;48.322;16.204;2024-03-02T05:07:10;6.60;99.90
25640;DHT22;13497;48.322;16.204;2024-03-02T05:09:36;6.50;99.90
25640;DHT22;13497;48.322;16.204;2024-03-02T05:12:02;6.60;99.90
25640;DHT22;13497;48.322;16.204;2024-03-02T05:14:55;6.60;99.90
25640;DHT22;13497;48.322;16.204;2024-03-02T05:17:21;6.70;99.90
25640;DHT22;13497;48.322;16.204;2024-03-02T05:19:47;6.70;99.90
25640;DHT22;13497;48.322;16.204;2024-03-02T05:22:12;6.70;99.90
25640;DHT22;13497;48.322;16.204;2024-03-02T05:24:38;6.60;99.90
25640;DHT22;13497;48.322;16.204;2024-03-02T05:27:04;6.60;99.90
25640;DHT22;13497;48.322;16.204;2024-03-02T05:29:29;6.60;99.90
25640;DHT22;13497;48.322;16.204;2024-03-02T05:31:55;6.50;99.90
25640;DHT22;13497;48.322;16.204;2024-03-02T05:34:21;6.50;99.90
25640;DHT22;13497;48.322;16.204;2024-03-02T05:36:46;6.60;99.90
25640;DHT22;13497;48.322;16.204;2024-03-02T05:39:12;6.60;99.90
25640;DHT22;13497;48.322;16.204;2024-03-02T05:41:38;6.60;99.90
25640;DHT22;13497;48.322;16.204;2024-03-02T05:44:04;6.60;99.90
25640;DHT22;13497;48.322;16.204;2024-03-02T05:46:29;6.70;99.90
25640;DHT22;13497;48.322;16.204;2024-03-02T05:48:55;6.70;99.90
25640;DHT22;13497;48.322;16.204;2024-03-02T05:51:21;6.70;99.90
25640;DHT22;13497;48.322;16.204;2024-03-02T05:53:47;6.70;99.90
25640;DHT22;13497;48.322;16.204;2024-03-02T05:56:13;6.70;99.90
25640;DHT22;13497;48.322;16.204;2024-03-02T05:58:38;6.70;99.90
25640;DHT22;13497;48.322;16.204;2024-03-02T06:01:23;6.80;99.90
25640;DHT22;13497;48.322;16.204;2024-03-02T06:03:55;6.70;99.90
25640;DHT22;13497;48.322;16.204;2024-03-02T06:06:21;6.80;99.90
25640;DHT22;13497;48.322;16.204;2024-03-02T06:08:46;6.90;99.90
25640;DHT22;13497;48.322;16.204;2024-03-02T06:11:12;6.80;99.90
25640;DHT22;13497;48.322;16.204;2024-03-02T06:13:38;6.80;99.90
25640;DHT22;13497;48.322;16.204;2024-03-02T06:16:03;6.80;99.90
25640;DHT22;13497;48.322;16.204;2024-03-02T06:18:29;6.80;99.90
25640;DHT22;13497;48.322;16.204;2024-03-02T06:20:55;6.80;99.90
25640;DHT22;13497;48.322;16.204;2024-03-02T06:23:20;6.80;99.90
25640;DHT22;13497;48.322;16.204;2024-03-02T06:25:46;6.90;99.90
25640;DHT22;13497;48.322;16.204;2024-03-02T06:28:12;6.90;99.90
25640;DHT22;13497;48.322;16.204;2024-03-02T06:30:41;6.80;99.90
25640;DHT22;13497;48.322;16.204;2024-03-02T06:33:06;6.80;99.90
25640;DHT22;13497;48.322;16.204;2024-03-02T06:35:32;6.80;99.90
25640;DHT22;13497;48.322;16.204;2024-03-02T06:37:58;6.60;99.90
25640;DHT22;13497;48.322;16.204;2024-03-02T06:40:23;6.70;99.90
25640;DHT22;13497;48.322;16.204;2024-03-02T06:42:49;6.70;99.90
25640;DHT22;13497;48.322;16.204;2024-03-02T06:45:15;6.70;99.90
25640;DHT22;13497;48.322;16.204;2024-03-02T06:47:40;6.60;99.90
25640;DHT22;13497;48.322;16.204;2024-03-02T06:50:06;6.60;99.90
25640;DHT22;13497;48.322;16.204;2024-03-02T06:52:32;6.50;99.90
25640;DHT22;13497;48.322;16.204;2024-03-02T06:54:58;6.60;99.90
25640;DHT22;13497;48.322;16.204;2024-03-02T06:57:24;6.60;99.90
25640;DHT22;13497;48.322;16.204;2024-03-02T06:59:50;6.70;99.90
25640;DHT22;13497;48.322;16.204;2024-03-02T07:02:16;6.70;99.90
25640;DHT22;13497;48.322;16.204;2024-03-02T07:04:42;6.70;99.90
25640;DHT22;13497;48.322;16.204;2024-03-02T07:07:08;7.00;99.90
25640;DHT22;13497;48.322;16.204;2024-03-02T07:09:34;7.00;99.90
25640;DHT22;13497;48.322;16.204;2024-03-02T07:12:00;7.00;99.90
25640;DHT22;13497;48.322;16.204;2024-03-02T07:14:26;6.90;99.90
25640;DHT22;13497;48.322;16.204;2024-03-02T07:17:12;6.90;99.90
25640;DHT22;13497;48.322;16.204;2024-03-02T07:19:38;7.00;99.90
25640;DHT22;13497;48.322;16.204;2024-03-02T07:22:06;7.10;99.90
25640;DHT22;13497;48.322;16.204;2024-03-02T07:24:39;7.10;99.90
25640;DHT22;13497;48.322;16.204;2024-03-02T07:27:06;7.20;99.90
25640;DHT22;13497;48.322;16.204;2024-03-02T07:29:32;7.30;99.90
25640;DHT22;13497;48.322;16.204;2024-03-02T07:31:57;7.50;99.90
25640;DHT22;13497;48.322;16.204;2024-03-02T07:34:23;7.60;99.90
25640;DHT22;13497;48.322;16.204;2024-03-02T07:36:49;7.80;99.90
25640;DHT22;13497;48.322;16.204;2024-03-02T07:39:14;7.90;99.90
25640;DHT22;13497;48.322;16.204;2024-03-02T07:41:40;8.00;99.90
25640;DHT22;13497;48.322;16.204;2024-03-02T07:44:06;8.00;99.90
25640;DHT22;13497;48.322;16.204;2024-03-02T07:46:32;8.20;99.90
25640;DHT22;13497;48.322;16.204;2024-03-02T07:48:57;8.20;99.90
25640;DHT22;13497;48.322;16.204;2024-03-02T07:51:23;8.30;99.90
25640;DHT22;13497;48.322;16.204;2024-03-02T07:53:48;8.30;99.90
25640;DHT22;13497;48.322;16.204;2024-03-02T07:56:14;8.40;99.90
25640;DHT22;13497;48.322;16.204;2024-03-02T07:58:46;8.50;99.90
25640;DHT22;13497;48.322;16.204;2024-03-02T08:01:13;8.60;99.90
25640;DHT22;13497;48.322;16.204;2024-03-02T08:03:39;8.70;99.90
25640;DHT22;13497;48.322;16.204;2024-03-02T08:06:05;8.80;99.90
25640;DHT22;13497;48.322;16.204;2024-03-02T08:08:30;9.00;99.90
25640;DHT22;13497;48.322;16.204;2024-03-02T08:10:56;9.20;99.90
25640;DHT22;13497;48.322;16.204;2024-03-02T08:13:21;9.40;99.90
25640;DHT22;13497;48.322;16.204;2024-03-02T08:15:47;9.50;99.90
25640;DHT22;13497;48.322;16.204;2024-03-02T08:18:13;9.30;99.90
25640;DHT22;13497;48.322;16.204;2024-03-02T08:20:38;9.00;99.90
25640;DHT22;13497;48.322;16.204;2024-03-02T08:23:05;9.00;99.90
25640;DHT22;13497;48.322;16.204;2024-03-02T08:25:31;9.10;99.90
25640;DHT22;13497;48.322;16.204;2024-03-02T08:27:56;9.20;99.90
25640;DHT22;13497;48.322;16.204;2024-03-02T08:30:23;9.50;99.90
25640;DHT22;13497;48.322;16.204;2024-03-02T08:32:48;9.80;99.90
25640;DHT22;13497;48.322;16.204;2024-03-02T08:35:14;9.90;99.90
25640;DHT22;13497;48.322;16.204;2024-03-02T08:37:41;10.00;99.90
25640;DHT22;13497;48.322;16.204;2024-03-02T08:40:08;10.20;99.90
25640;DHT22;13497;48.322;16.204;2024-03-02T08:42:34;10.50;99.90
25640;DHT22;13497;48.322;16.204;2024-03-02T08:45:00;10.80;99.90
25640;DHT22;13497;48.322;16.204;2024-03-02T08:47:29;10.80;99.90
25640;DHT22;13497;48.322;16.204;2024-03-02T08:49:54;10.50;99.90
25640;DHT22;13497;48.322;16.204;2024-03-02T08:52:20;10.40;99.90
25640;DHT22;13497;48.322;16.204;2024-03-02T08:54:45;10.30;99.90
25640;DHT22;13497;48.322;16.204;2024-03-02T08:57:11;10.30;99.90
25640;DHT22;13497;48.322;16.204;2024-03-02T08:59:37;10.20;99.90
25640;DHT22;13497;48.322;16.204;2024-03-02T09:02:03;10.10;99.90
25640;DHT22;13497;48.322;16.204;2024-03-02T09:04:29;9.80;99.90
25640;DHT22;13497;48.322;16.204;2024-03-02T09:06:55;9.70;99.90
25640;DHT22;13497;48.322;16.204;2024-03-02T09:09:20;9.60;99.90
25640;DHT22;13497;48.322;16.204;2024-03-02T09:11:46;9.70;99.90
25640;DHT22;13497;48.322;16.204;2024-03-02T09:14:12;9.60;99.90
25640;DHT22;13497;48.322;16.204;2024-03-02T09:16:38;9.80;99.90
25640;DHT22;13497;48.322;16.204;2024-03-02T09:19:03;10.00;99.90
25640;DHT22;13497;48.322;16.204;2024-03-02T09:21:29;10.30;99.90
25640;DHT22;13497;48.322;16.204;2024-03-02T09:23:55;10.30;99.90
25640;DHT22;13497;48.322;16.204;2024-03-02T09:26:22;10.60;99.90
25640;DHT22;13497;48.322;16.204;2024-03-02T09:28:50;10.80;99.90
25640;DHT22;13497;48.322;16.204;2024-03-02T09:31:16;11.10;99.90
25640;DHT22;13497;48.322;16.204;2024-03-02T09:33:41;11.10;99.90
25640;DHT22;13497;48.322;16.204;2024-03-02T09:36:20;11.30;99.90
25640;DHT22;13497;48.322;16.204;2024-03-02T09:38:46;11.40;99.90
25640;DHT22;13497;48.322;16.204;2024-03-02T09:41:12;11.50;99.90
25640;DHT22;13497;48.322;16.204;2024-03-02T09:43:38;11.50;99.90
25640;DHT22;13497;48.322;16.204;2024-03-02T09:46:05;11.90;99.90
25640;DHT22;13497;48.322;16.204;2024-03-02T09:48:31;12.10;99.90
25640;DHT22;13497;48.322;16.204;2024-03-02T09:50:57;12.20;99.90
25640;DHT22;13497;48.322;16.204;2024-03-02T09:53:24;12.40;99.90
25640;DHT22;13497;48.322;16.204;2024-03-02T09:55:50;12.50;99.90
25640;DHT22;13497;48.322;16.204;2024-03-02T09:58:16;12.50;99.90
25640;DHT22;13497;48.322;16.204;2024-03-02T10:00:41;12.40;99.90
25640;DHT22;13497;48.322;16.204;2024-03-02T10:03:12;12.10;99.90
25640;DHT22;13497;48.322;16.204;2024-03-02T10:05:38;11.70;99.90
25640;DHT22;13497;48.322;16.204;2024-03-02T10:08:04;11.70;99.90
25640;DHT22;13497;48.322;16.204;2024-03-02T10:10:37;11.60;99.90
25640;DHT22;13497;48.322;16.204;2024-03-02T10:13:06;11.70;99.90
25640;DHT22;13497;48.322;16.204;2024-03-02T10:15:33;11.90;99.90
25640;DHT22;13497;48.322;16.204;2024-03-02T10:17:59;11.70;99.90
25640;DHT22;13497;48.322;16.204;2024-03-02T10:20:25;12.00;99.90
25640;DHT22;13497;48.322;16.204;2024-03-02T10:22:54;12.40;99.90
25640;DHT22;13497;48.322;16.204;2024-03-02T10:25:33;12.70;99.90
25640;DHT22;13497;48.322;16.204;2024-03-02T10:28:00;12.60;99.90
25640;DHT22;13497;48.322;16.204;2024-03-02T10:30:27;12.70;99.90
25640;DHT22;13497;48.322;16.204;2024-03-02T10:32:53;12.60;99.90
25640;DHT22;13497;48.322;16.204;2024-03-02T10:35:20;12.30;99.90
25640;DHT22;13497;48.322;16.204;2024-03-02T10:37:48;12.50;99.90
25640;DHT22;13497;48.322;16.204;2024-03-02T10:40:13;12.90;99.90
25640;DHT22;13497;48.322;16.204;2024-03-02T10:42:41;13.00;99.90
25640;DHT22;13497;48.322;16.204;2024-03-02T10:45:09;13.10;99.90
25640;DHT22;13497;48.322;16.204;2024-03-02T10:47:38;13.20;99.90
25640;DHT22;13497;48.322;16.204;2024-03-02T10:50:05;13.20;99.90
25640;DHT22;13497;48.322;16.204;2024-03-02T10:52:37;13.00;99.90
25640;DHT22;13497;48.322;16.204;2024-03-02T10:55:08;13.20;99.90
25640;DHT22;13497;48.322;16.204;2024-03-02T10:57:42;13.20;99.90
25640;DHT22;13497;48.322;16.204;2024-03-02T11:00:12;13.30;99.90
25640;DHT22;13497;48.322;16.204;2024-03-02T11:02:51;13.50;99.90
25640;DHT22;13497;48.322;16.204;2024-03-02T11:05:26;13.40;99.90
25640;DHT22;13497;48.322;16.204;2024-03-02T11:08:02;13.20;99.90
25640;DHT22;13497;48.322;16.204;2024-03-02T11:10:41;13.00;99.90
25640;DHT22;13497;48.322;16.204;2024-03-02T11:13:12;12.80;99.90
25640;DHT22;13497;48.322;16.204;2024-03-02T11:15:40;12.50;99.90
25640;DHT22;13497;48.322;16.204;2024-03-02T11:18:06;12.20;99.90
25640;DHT22;13497;48.322;16.204;2024-03-02T11:20:36;12.10;99.90
25640;DHT22;13497;48.322;16.204;2024-03-02T11:23:07;12.00;99.90
25640;DHT22;13497;48.322;16.204;2024-03-02T11:25:34;12.20;99.90
25640;DHT22;13497;48.322;16.204;2024-03-02T11:28:04;12.10;99.90
25640;DHT22;13497;48.322;16.204;2024-03-02T11:33:08;12.10;99.90
25640;DHT22;13497;48.322;16.204;2024-03-02T11:35:34;12.20;99.90
25640;DHT22;13497;48.322;16.204;2024-03-02T11:38:01;12.10;99.90
25640;DHT22;13497;48.322;16.204;2024-03-02T11:40:29;12.10;99.90
25640;DHT22;13497;48.322;16.204;2024-03-02T11:42:56;12.10;99.90
25640;DHT22;13497;48.322;16.204;2024-03-02T11:45:26;12.10;99.90
25640;DHT22;13497;48.322;16.204;2024-03-02T11:47:54;12.10;99.90
25640;DHT22;13497;48.322;16.204;2024-03-02T11:50:30;12.10;99.90
25640;DHT22;13497;48.322;16.204;2024-03-02T11:52:58;12.20;99.90
25640;DHT22;13497;48.322;16.204;2024-03-02T11:55:25;12.20;99.90
25640;DHT22;13497;48.322;16.204;2024-03-02T11:57:54;12.20;99.90
25640;DHT22;13497;48.322;16.204;2024-03-02T12:00:20;12.30;99.90
25640;DHT22;13497;48.322;16.204;2024-03-02T12:03:08;12.40;99.90
25640;DHT22;13497;48.322;16.204;2024-03-02T12:05:32;12.40;99.90
25640;DHT22;13497;48.322;16.204;2024-03-02T12:08:00;12.40;99.90
25640;DHT22;13497;48.322;16.204;2024-03-02T12:10:26;12.40;99.90
25640;DHT22;13497;48.322;16.204;2024-03-02T12:12:56;12.30;99.90
25640;DHT22;13497;48.322;16.204;2024-03-02T12:15:29;12.20;99.90
25640;DHT22;13497;48.322;16.204;2024-03-02T12:17:56;12.20;99.90
25640;DHT22;13497;48.322;16.204;2024-03-02T12:20:27;12.20;99.90
25640;DHT22;13497;48.322;16.204;2024-03-02T12:22:54;12.40;99.90
25640;DHT22;13497;48.322;16.204;2024-03-02T12:25:21;12.30;99.90
25640;DHT22;13497;48.322;16.204;2024-03-02T12:27:49;12.50;99.90
25640;DHT22;13497;48.322;16.204;2024-03-02T12:30:19;12.60;99.90
25640;DHT22;13497;48.322;16.204;2024-03-02T12:32:45;12.60;99.90
25640;DHT22;13497;48.322;16.204;2024-03-02T12:35:11;12.60;99.90
25640;DHT22;13497;48.322;16.204;2024-03-02T12:37:50;12.40;99.90
25640;DHT22;13497;48.322;16.204;2024-03-02T12:40:17;12.20;99.90
25640;DHT22;13497;48.322;16.204;2024-03-02T12:42:44;12.10;99.90
25640;DHT22;13497;48.322;16.204;2024-03-02T12:45:11;12.10;99.90
25640;DHT22;13497;48.322;16.204;2024-03-02T12:47:38;12.20;99.90
25640;DHT22;13497;48.322;16.204;2024-03-02T12:50:05;12.20;99.90
25640;DHT22;13497;48.322;16.204;2024-03-02T12:52:32;12.40;99.90
25640;DHT22;13497;48.322;16.204;2024-03-02T12:55:02;12.70;99.90
25640;DHT22;13497;48.322;16.204;2024-03-02T12:57:31;12.70;99.90
25640;DHT22;13497;48.322;16.204;2024-03-02T13:00:02;13.00;99.90
25640;DHT22;13497;48.322;16.204;2024-03-02T13:02:35;13.10;99.90
25640;DHT22;13497;48.322;16.204;2024-03-02T13:05:01;13.00;99.90
25640;DHT22;13497;48.322;16.204;2024-03-02T13:07:27;13.10;99.90
25640;DHT22;13497;48.322;16.204;2024-03-02T13:09:53;13.10;99.90
25640;DHT22;13497;48.322;16.204;2024-03-02T13:12:21;13.20;99.90
25640;DHT22;13497;48.322;16.204;2024-03-02T13:14:53;13.20;99.90
25640;DHT22;13497;48.322;16.204;2024-03-02T13:17:19;13.20;99.90
25640;DHT22;13497;48.322;16.204;2024-03-02T13:20:11;13.20;99.90
25640;DHT22;13497;48.322;16.204;2024-03-02T13:22:39;13.10;99.90
25640;DHT22;13497;48.322;16.204;2024-03-02T13:25:05;13.00;99.90
25640;DHT22;13497;48.322;16.204;2024-03-02T13:27:32;13.00;99.90
25640;DHT22;13497;48.322;16.204;2024-03-02T13:29:58;12.80;99.90
25640;DHT22;13497;48.322;16.204;2024-03-02T13:32:24;12.80;99.90
25640;DHT22;13497;48.322;16.204;2024-03-02T13:34:51;12.90;99.90
25640;DHT22;13497;48.322;16.204;2024-03-02T13:37:17;12.80;99.90
25640;DHT22;13497;48.322;16.204;2024-03-02T13:39:43;12.80;99.90
25640;DHT22;13497;48.322;16.204;2024-03-02T13:42:12;12.80;99.90
25640;DHT22;13497;48.322;16.204;2024-03-02T13:44:40;12.80;99.90
25640;DHT22;13497;48.322;16.204;2024-03-02T13:47:07;12.80;99.90
25640;DHT22;13497;48.322;16.204;2024-03-02T13:49:32;12.90;99.90
25640;DHT22;13497;48.322;16.204;2024-03-02T13:52:09;12.80;99.90
25640;DHT22;13497;48.322;16.204;2024-03-02T13:54:44;12.90;99.90
25640;DHT22;13497;48.322;16.204;2024-03-02T13:57:11;12.80;99.90
25640;DHT22;13497;48.322;16.204;2024-03-02T13:59:37;12.60;99.90
25640;DHT22;13497;48.322;16.204;2024-03-02T14:02:04;12.70;99.90
25640;DHT22;13497;48.322;16.204;2024-03-02T14:04:34;12.60;99.90
25640;DHT22;13497;48.322;16.204;2024-03-02T14:07:00;12.50;99.90
25640;DHT22;13497;48.322;16.204;2024-03-02T14:09:26;12.50;99.90
25640;DHT22;13497;48.322;16.204;2024-03-02T14:11:53;12.60;99.90
25640;DHT22;13497;48.322;16.204;2024-03-02T14:14:18;12.80;99.90
25640;DHT22;13497;48.322;16.204;2024-03-02T14:16:44;12.80;99.90
25640;DHT22;13497;48.322;16.204;2024-03-02T14:19:13;12.90;99.90
25640;DHT22;13497;48.322;16.204;2024-03-02T14:21:39;13.00;99.90
25640;DHT22;13497;48.322;16.204;2024-03-02T14:24:05;13.00;99.90
25640;DHT22;13497;48.322;16.204;2024-03-02T14:26:33;13.00;99.90
25640;DHT22;13497;48.322;16.204;2024-03-02T14:28:59;12.80;99.90
25640;DHT22;13497;48.322;16.204;2024-03-02T14:31:26;12.70;99.90
25640;DHT22;13497;48.322;16.204;2024-03-02T14:33:53;12.40;99.90
25640;DHT22;13497;48.322;16.204;2024-03-02T14:36:18;12.40;99.90
25640;DHT22;13497;48.322;16.204;2024-03-02T14:38:44;12.50;99.90
25640;DHT22;13497;48.322;16.204;2024-03-02T14:41:10;12.70;99.90
25640;DHT22;13497;48.322;16.204;2024-03-02T14:43:36;12.70;99.90
25640;DHT22;13497;48.322;16.204;2024-03-02T14:46:03;12.70;99.90
25640;DHT22;13497;48.322;16.204;2024-03-02T14:48:29;12.80;99.90
25640;DHT22;13497;48.322;16.204;2024-03-02T14:50:55;12.80;99.90
25640;DHT22;13497;48.322;16.204;2024-03-02T14:53:21;12.70;99.90
25640;DHT22;13497;48.322;16.204;2024-03-02T14:55:47;12.80;99.90
25640;DHT22;13497;48.322;16.204;2024-03-02T14:58:12;13.00;99.90
25640;DHT22;13497;48.322;16.204;2024-03-02T15:00:38;13.10;99.90
25640;DHT22;13497;48.322;16.204;2024-03-02T15:03:04;13.10;99.90
25640;DHT22;13497;48.322;16.204;2024-03-02T15:05:33;13.00;99.90
25640;DHT22;13497;48.322;16.204;2024-03-02T15:07:58;12.80;99.90
25640;DHT22;13497;48.322;16.204;2024-03-02T15:10:27;12.70;99.90
25640;DHT22;13497;48.322;16.204;2024-03-02T15:12:53;12.60;99.90
25640;DHT22;13497;48.322;16.204;2024-03-02T15:15:18;12.60;99.90
25640;DHT22;13497;48.322;16.204;2024-03-02T15:17:44;12.80;99.90
25640;DHT22;13497;48.322;16.204;2024-03-02T15:20:10;12.70;99.90
25640;DHT22;13497;48.322;16.204;2024-03-02T15:22:36;12.50;99.90
25640;DHT22;13497;48.322;16.204;2024-03-02T15:25:01;12.30;99.90
25640;DHT22;13497;48.322;16.204;2024-03-02T15:27:27;12.30;99.90
25640;DHT22;13497;48.322;16.204;2024-03-02T15:29:53;12.10;99.90
25640;DHT22;13497;48.322;16.204;2024-03-02T15:32:20;12.10;99.90